sensor_id;sensor_type;location;lat;lon;timestamp;P1;durP1;ratioP1;P2;durP2;ratioP2
37451;SDS011;23314;51.114;6.900;2022-11-24T00:01:49;23.13;;;9.10;;
37451;SDS011;23314;51.114;6.900;2022-11-24T00:04:14;26.37;;;9.50;;
37451;SDS011;23314;51.114;6.900;2022-11-24T00:06:39;31.30;;;9.17;;
37451;SDS011;23314;51.114;6.900;2022-11-24T00:09:05;31.80;;;8.67;;
37451;SDS011;23314;51.114;6.900;2022-11-24T00:11:32;31.97;;;8.60;;
37451;SDS011;23314;51.114;6.900;2022-11-24T00:13:59;29.40;;;8.57;;
37451;SDS011;23314;51.114;6.900;2022-11-24T00:16:29;32.20;;;7.57;;
37451;SDS011;23314;51.114;6.900;2022-11-24T00:18:57;28.07;;;9.10;;
37451;SDS011;23314;51.114;6.900;2022-11-24T00:21:24;26.20;;;8.03;;
37451;SDS011;23314;51.114;6.900;2022-11-24T00:23:51;27.70;;;7.50;;
37451;SDS011;23314;51.114;6.900;2022-11-24T00:26:17;25.47;;;7.73;;
37451;SDS011;23314;51.114;6.900;2022-11-24T00:28:48;28.87;;;7.83;;
37451;SDS011;23314;51.114;6.900;2022-11-24T00:31:18;33.73;;;7.83;;
37451;SDS011;23314;51.114;6.900;2022-11-24T00:33:48;26.40;;;7.23;;
37451;SDS011;23314;51.114;6.900;2022-11-24T00:36:15;26.47;;;7.63;;
37451;SDS011;23314;51.114;6.900;2022-11-24T00:38:42;30.10;;;7.00;;
37451;SDS011;23314;51.114;6.900;2022-11-24T00:41:08;26.63;;;6.50;;
37451;SDS011;23314;51.114;6.900;2022-11-24T00:43:33;23.57;;;6.33;;
37451;SDS011;23314;51.114;6.900;2022-11-24T00:45:58;31.17;;;6.77;;
37451;SDS011;23314;51.114;6.900;2022-11-24T00:48:24;28.53;;;6.87;;
37451;SDS011;23314;51.114;6.900;2022-11-24T00:50:56;28.13;;;5.97;;
37451;SDS011;23314;51.114;6.900;2022-11-24T00:53:23;29.77;;;5.90;;
37451;SDS011;23314;51.114;6.900;2022-11-24T00:55:49;26.77;;;6.47;;
37451;SDS011;23314;51.114;6.900;2022-11-24T00:58:15;24.60;;;6.17;;
37451;SDS011;23314;51.114;6.900;2022-11-24T01:00:41;27.37;;;5.37;;
37451;SDS011;23314;51.114;6.900;2022-11-24T01:03:06;27.07;;;6.07;;
37451;SDS011;23314;51.114;6.900;2022-11-24T01:05:34;22.13;;;5.77;;
37451;SDS011;23314;51.114;6.900;2022-11-24T01:08:00;31.07;;;6.30;;
37451;SDS011;23314;51.114;6.900;2022-11-24T01:10:26;26.63;;;6.50;;
37451;SDS011;23314;51.114;6.900;2022-11-24T01:12:51;33.33;;;5.67;;
37451;SDS011;23314;51.114;6.900;2022-11-24T01:15:16;25.73;;;5.67;;
37451;SDS011;23314;51.114;6.900;2022-11-24T01:17:42;27.17;;;6.17;;
37451;SDS011;23314;51.114;6.900;2022-11-24T01:20:07;26.20;;;6.80;;
37451;SDS011;23314;51.114;6.900;2022-11-24T01:22:33;31.50;;;6.00;;
37451;SDS011;23314;51.114;6.900;2022-11-24T01:24:59;35.07;;;6.47;;
37451;SDS011;23314;51.114;6.900;2022-11-24T01:27:24;28.80;;;5.80;;
37451;SDS011;23314;51.114;6.900;2022-11-24T01:29:49;26.97;;;6.10;;
37451;SDS011;23314;51.114;6.900;2022-11-24T01:32:15;19.97;;;5.50;;
37451;SDS011;23314;51.114;6.900;2022-11-24T01:34:40;28.10;;;6.20;;
37451;SDS011;23314;51.114;6.900;2022-11-24T01:37:05;27.27;;;6.27;;
37451;SDS011;23314;51.114;6.900;2022-11-24T01:39:31;27.60;;;5.40;;
37451;SDS011;23314;51.114;6.900;2022-11-24T01:41:59;34.90;;;6.63;;
37451;SDS011;23314;51.114;6.900;2022-11-24T01:44:26;30.70;;;6.53;;
37451;SDS011;23314;51.114;6.900;2022-11-24T01:46:57;25.90;;;5.80;;
37451;SDS011;23314;51.114;6.900;2022-11-24T01:49:38;23.40;;;5.53;;
37451;SDS011;23314;51.114;6.900;2022-11-24T01:52:18;27.17;;;5.83;;
37451;SDS011;23314;51.114;6.900;2022-11-24T01:54:51;28.80;;;6.17;;
37451;SDS011;23314;51.114;6.900;2022-11-24T01:57:24;23.50;;;5.00;;
37451;SDS011;23314;51.114;6.900;2022-11-24T02:00:04;28.97;;;5.57;;
37451;SDS011;23314;51.114;6.900;2022-11-24T02:02:33;28.37;;;5.63;;
37451;SDS011;23314;51.114;6.900;2022-11-24T02:05:01;25.13;;;5.23;;
37451;SDS011;23314;51.114;6.900;2022-11-24T02:07:29;22.60;;;5.60;;
37451;SDS011;23314;51.114;6.900;2022-11-24T02:09:57;24.27;;;5.27;;
37451;SDS011;23314;51.114;6.900;2022-11-24T02:12:26;24.37;;;4.83;;
37451;SDS011;23314;51.114;6.900;2022-11-24T02:14:53;20.47;;;5.00;;
37451;SDS011;23314;51.114;6.900;2022-11-24T02:17:19;17.97;;;4.73;;
37451;SDS011;23314;51.114;6.900;2022-11-24T02:19:54;19.23;;;4.97;;
37451;SDS011;23314;51.114;6.900;2022-11-24T02:22:25;31.80;;;5.70;;
37451;SDS011;23314;51.114;6.900;2022-11-24T02:25:10;23.83;;;5.13;;
37451;SDS011;23314;51.114;6.900;2022-11-24T02:27:47;26.83;;;5.23;;
37451;SDS011;23314;51.114;6.900;2022-11-24T02:30:13;23.83;;;4.93;;
37451;SDS011;23314;51.114;6.900;2022-11-24T02:32:39;22.10;;;4.73;;
37451;SDS011;23314;51.114;6.900;2022-11-24T02:35:07;25.17;;;4.60;;
37451;SDS011;23314;51.114;6.900;2022-11-24T02:37:34;26.00;;;4.80;;
37451;SDS011;23314;51.114;6.900;2022-11-24T02:39:59;21.53;;;4.00;;
37451;SDS011;23314;51.114;6.900;2022-11-24T02:42:25;19.30;;;4.87;;
37451;SDS011;23314;51.114;6.900;2022-11-24T02:44:54;18.50;;;4.50;;
37451;SDS011;23314;51.114;6.900;2022-11-24T02:47:23;20.40;;;4.17;;
37451;SDS011;23314;51.114;6.900;2022-11-24T02:49:49;21.63;;;4.90;;
37451;SDS011;23314;51.114;6.900;2022-11-24T02:52:14;26.20;;;4.60;;
37451;SDS011;23314;51.114;6.900;2022-11-24T02:54:40;22.10;;;4.77;;
37451;SDS011;23314;51.114;6.900;2022-11-24T02:57:05;19.07;;;4.83;;
37451;SDS011;23314;51.114;6.900;2022-11-24T02:59:31;18.50;;;4.33;;
37451;SDS011;23314;51.114;6.900;2022-11-24T03:01:56;31.50;;;6.10;;
37451;SDS011;23314;51.114;6.900;2022-11-24T03:04:21;22.67;;;4.73;;
37451;SDS011;23314;51.114;6.900;2022-11-24T03:06:47;28.90;;;5.00;;
37451;SDS011;23314;51.114;6.900;2022-11-24T03:09:13;21.93;;;4.97;;
37451;SDS011;23314;51.114;6.900;2022-11-24T03:11:38;26.80;;;5.97;;
37451;SDS011;23314;51.114;6.900;2022-11-24T03:14:04;25.20;;;5.33;;
37451;SDS011;23314;51.114;6.900;2022-11-24T03:16:29;21.17;;;4.77;;
37451;SDS011;23314;51.114;6.900;2022-11-24T03:18:55;26.80;;;5.23;;
37451;SDS011;23314;51.114;6.900;2022-11-24T03:21:21;21.20;;;4.97;;
37451;SDS011;23314;51.114;6.900;2022-11-24T03:23:46;23.00;;;5.57;;
37451;SDS011;23314;51.114;6.900;2022-11-24T03:26:12;24.37;;;6.07;;
37451;SDS011;23314;51.114;6.900;2022-11-24T03:28:39;21.50;;;5.63;;
37451;SDS011;23314;51.114;6.900;2022-11-24T03:31:05;25.17;;;5.57;;
37451;SDS011;23314;51.114;6.900;2022-11-24T03:33:32;20.17;;;5.10;;
37451;SDS011;23314;51.114;6.900;2022-11-24T03:35:57;20.40;;;4.73;;
37451;SDS011;23314;51.114;6.900;2022-11-24T03:38:22;22.80;;;5.27;;
37451;SDS011;23314;51.114;6.900;2022-11-24T03:40:48;20.17;;;5.67;;
37451;SDS011;23314;51.114;6.900;2022-11-24T03:43:13;20.47;;;4.67;;
37451;SDS011;23314;51.114;6.900;2022-11-24T03:45:38;20.77;;;5.00;;
37451;SDS011;23314;51.114;6.900;2022-11-24T03:48:04;25.53;;;4.70;;
37451;SDS011;23314;51.114;6.900;2022-11-24T03:50:31;17.97;;;4.30;;
37451;SDS011;23314;51.114;6.900;2022-11-24T03:52:56;20.43;;;5.23;;
37451;SDS011;23314;51.114;6.900;2022-11-24T03:55:21;25.33;;;4.93;;
37451;SDS011;23314;51.114;6.900;2022-11-24T03:57:47;22.83;;;4.80;;
37451;SDS011;23314;51.114;6.900;2022-11-24T04:00:12;23.97;;;4.13;;
37451;SDS011;23314;51.114;6.900;2022-11-24T04:02:38;20.60;;;4.63;;
37451;SDS011;23314;51.114;6.900;2022-11-24T04:05:03;15.90;;;4.17;;
37451;SDS011;23314;51.114;6.900;2022-11-24T04:07:29;23.10;;;4.30;;
37451;SDS011;23314;51.114;6.900;2022-11-24T04:09:55;23.33;;;4.70;;
37451;SDS011;23314;51.114;6.900;2022-11-24T04:12:20;26.27;;;4.60;;
37451;SDS011;23314;51.114;6.900;2022-11-24T04:15:04;22.93;;;4.93;;
37451;SDS011;23314;51.114;6.900;2022-11-24T04:17:30;23.23;;;4.33;;
37451;SDS011;23314;51.114;6.900;2022-11-24T04:19:55;19.83;;;4.50;;
37451;SDS011;23314;51.114;6.900;2022-11-24T04:22:21;19.43;;;4.60;;
37451;SDS011;23314;51.114;6.900;2022-11-24T04:24:46;22.77;;;4.93;;
37451;SDS011;23314;51.114;6.900;2022-11-24T04:27:11;24.03;;;4.93;;
37451;SDS011;23314;51.114;6.900;2022-11-24T04:29:37;19.67;;;4.07;;
37451;SDS011;23314;51.114;6.900;2022-11-24T04:32:02;22.07;;;4.60;;
37451;SDS011;23314;51.114;6.900;2022-11-24T04:34:28;21.47;;;4.70;;
37451;SDS011;23314;51.114;6.900;2022-11-24T04:36:53;21.07;;;4.13;;
37451;SDS011;23314;51.114;6.900;2022-11-24T04:39:18;25.87;;;4.83;;
37451;SDS011;23314;51.114;6.900;2022-11-24T04:41:45;19.20;;;4.03;;
37451;SDS011;23314;51.114;6.900;2022-11-24T04:44:11;21.33;;;4.23;;
37451;SDS011;23314;51.114;6.900;2022-11-24T04:46:36;28.67;;;4.70;;
37451;SDS011;23314;51.114;6.900;2022-11-24T04:49:01;23.10;;;4.57;;
37451;SDS011;23314;51.114;6.900;2022-11-24T04:51:27;20.60;;;4.63;;
37451;SDS011;23314;51.114;6.900;2022-11-24T04:53:52;19.47;;;4.50;;
37451;SDS011;23314;51.114;6.900;2022-11-24T04:56:17;21.17;;;4.70;;
37451;SDS011;23314;51.114;6.900;2022-11-24T04:58:43;21.50;;;4.30;;
37451;SDS011;23314;51.114;6.900;2022-11-24T05:01:08;17.43;;;4.00;;
37451;SDS011;23314;51.114;6.900;2022-11-24T05:03:36;16.23;;;3.90;;
37451;SDS011;23314;51.114;6.900;2022-11-24T05:06:02;21.73;;;4.83;;
37451;SDS011;23314;51.114;6.900;2022-11-24T05:08:27;19.30;;;4.47;;
37451;SDS011;23314;51.114;6.900;2022-11-24T05:10:53;26.30;;;4.90;;
37451;SDS011;23314;51.114;6.900;2022-11-24T05:13:18;28.93;;;4.43;;
37451;SDS011;23314;51.114;6.900;2022-11-24T05:15:44;23.53;;;4.70;;
37451;SDS011;23314;51.114;6.900;2022-11-24T05:18:10;20.37;;;4.90;;
37451;SDS011;23314;51.114;6.900;2022-11-24T05:20:37;20.43;;;4.80;;
37451;SDS011;23314;51.114;6.900;2022-11-24T05:23:04;25.17;;;5.80;;
37451;SDS011;23314;51.114;6.900;2022-11-24T05:25:32;21.00;;;4.73;;
37451;SDS011;23314;51.114;6.900;2022-11-24T05:27:59;23.13;;;4.03;;
37451;SDS011;23314;51.114;6.900;2022-11-24T05:30:25;18.93;;;4.53;;
37451;SDS011;23314;51.114;6.900;2022-11-24T05:32:51;20.83;;;4.50;;
37451;SDS011;23314;51.114;6.900;2022-11-24T05:35:16;25.17;;;4.70;;
37451;SDS011;23314;51.114;6.900;2022-11-24T05:37:43;23.93;;;4.90;;
37451;SDS011;23314;51.114;6.900;2022-11-24T05:40:08;23.70;;;4.73;;
37451;SDS011;23314;51.114;6.900;2022-11-24T05:42:34;24.70;;;4.67;;
37451;SDS011;23314;51.114;6.900;2022-11-24T05:45:19;27.50;;;5.37;;
37451;SDS011;23314;51.114;6.900;2022-11-24T05:47:45;27.70;;;4.93;;
37451;SDS011;23314;51.114;6.900;2022-11-24T05:50:12;20.63;;;4.93;;
37451;SDS011;23314;51.114;6.900;2022-11-24T05:52:39;20.10;;;4.57;;
37451;SDS011;23314;51.114;6.900;2022-11-24T05:55:05;25.90;;;5.20;;
37451;SDS011;23314;51.114;6.900;2022-11-24T05:57:31;23.93;;;4.80;;
37451;SDS011;23314;51.114;6.900;2022-11-24T05:59:57;21.67;;;4.50;;
37451;SDS011;23314;51.114;6.900;2022-11-24T06:02:22;19.77;;;5.33;;
37451;SDS011;23314;51.114;6.900;2022-11-24T06:04:48;24.40;;;5.30;;
37451;SDS011;23314;51.114;6.900;2022-11-24T06:07:13;24.53;;;5.40;;
37451;SDS011;23314;51.114;6.900;2022-11-24T06:09:39;21.07;;;5.20;;
37451;SDS011;23314;51.114;6.900;2022-11-24T06:12:07;25.70;;;4.67;;
37451;SDS011;23314;51.114;6.900;2022-11-24T06:14:33;28.07;;;5.17;;
37451;SDS011;23314;51.114;6.900;2022-11-24T06:16:58;15.77;;;3.97;;
37451;SDS011;23314;51.114;6.900;2022-11-24T06:19:24;20.13;;;4.33;;
37451;SDS011;23314;51.114;6.900;2022-11-24T06:21:49;20.27;;;4.10;;
37451;SDS011;23314;51.114;6.900;2022-11-24T06:24:15;21.13;;;4.50;;
37451;SDS011;23314;51.114;6.900;2022-11-24T06:26:40;18.70;;;4.13;;
37451;SDS011;23314;51.114;6.900;2022-11-24T06:29:06;16.63;;;3.93;;
37451;SDS011;23314;51.114;6.900;2022-11-24T06:31:31;18.47;;;3.90;;
37451;SDS011;23314;51.114;6.900;2022-11-24T06:33:58;20.57;;;4.10;;
37451;SDS011;23314;51.114;6.900;2022-11-24T06:36:25;21.67;;;3.40;;
37451;SDS011;23314;51.114;6.900;2022-11-24T06:38:50;10.90;;;3.00;;
37451;SDS011;23314;51.114;6.900;2022-11-24T06:41:16;20.60;;;3.67;;
37451;SDS011;23314;51.114;6.900;2022-11-24T06:43:45;13.77;;;3.07;;
37451;SDS011;23314;51.114;6.900;2022-11-24T06:46:14;7.27;;;2.10;;
37451;SDS011;23314;51.114;6.900;2022-11-24T06:48:39;10.80;;;2.80;;
37451;SDS011;23314;51.114;6.900;2022-11-24T06:51:06;7.93;;;2.10;;
37451;SDS011;23314;51.114;6.900;2022-11-24T06:53:33;3.87;;;1.50;;
37451;SDS011;23314;51.114;6.900;2022-11-24T06:56:04;5.83;;;1.50;;
37451;SDS011;23314;51.114;6.900;2022-11-24T06:58:31;4.13;;;1.37;;
37451;SDS011;23314;51.114;6.900;2022-11-24T07:00:56;5.57;;;1.77;;
37451;SDS011;23314;51.114;6.900;2022-11-24T07:03:21;7.13;;;1.73;;
37451;SDS011;23314;51.114;6.900;2022-11-24T07:05:47;5.20;;;1.50;;
37451;SDS011;23314;51.114;6.900;2022-11-24T07:08:12;8.13;;;1.80;;
37451;SDS011;23314;51.114;6.900;2022-11-24T07:10:38;5.50;;;1.80;;
37451;SDS011;23314;51.114;6.900;2022-11-24T07:13:07;3.93;;;1.47;;
37451;SDS011;23314;51.114;6.900;2022-11-24T07:15:32;6.80;;;2.13;;
37451;SDS011;23314;51.114;6.900;2022-11-24T07:17:58;6.00;;;1.77;;
37451;SDS011;23314;51.114;6.900;2022-11-24T07:20:23;9.40;;;1.80;;
37451;SDS011;23314;51.114;6.900;2022-11-24T07:22:48;4.50;;;1.77;;
37451;SDS011;23314;51.114;6.900;2022-11-24T07:25:14;4.23;;;1.80;;
37451;SDS011;23314;51.114;6.900;2022-11-24T07:27:41;3.53;;;1.63;;
37451;SDS011;23314;51.114;6.900;2022-11-24T07:30:07;4.53;;;2.20;;
37451;SDS011;23314;51.114;6.900;2022-11-24T07:32:33;6.33;;;1.47;;
37451;SDS011;23314;51.114;6.900;2022-11-24T07:34:58;4.30;;;1.77;;
37451;SDS011;23314;51.114;6.900;2022-11-24T07:37:24;6.40;;;2.07;;
37451;SDS011;23314;51.114;6.900;2022-11-24T07:39:49;2.93;;;1.23;;
37451;SDS011;23314;51.114;6.900;2022-11-24T07:42:14;3.93;;;1.60;;
37451;SDS011;23314;51.114;6.900;2022-11-24T07:44:40;6.00;;;1.90;;
37451;SDS011;23314;51.114;6.900;2022-11-24T07:47:05;7.00;;;1.93;;
37451;SDS011;23314;51.114;6.900;2022-11-24T07:49:30;4.77;;;1.90;;
37451;SDS011;23314;51.114;6.900;2022-11-24T07:51:56;5.63;;;1.70;;
37451;SDS011;23314;51.114;6.900;2022-11-24T07:54:21;9.60;;;2.17;;
37451;SDS011;23314;51.114;6.900;2022-11-24T07:56:47;7.03;;;1.90;;
37451;SDS011;23314;51.114;6.900;2022-11-24T07:59:12;2.17;;;1.27;;
37451;SDS011;23314;51.114;6.900;2022-11-24T08:01:38;6.30;;;1.80;;
37451;SDS011;23314;51.114;6.900;2022-11-24T08:04:03;4.37;;;1.60;;
37451;SDS011;23314;51.114;6.900;2022-11-24T08:06:29;7.33;;;1.70;;
37451;SDS011;23314;51.114;6.900;2022-11-24T08:08:55;7.93;;;1.70;;
37451;SDS011;23314;51.114;6.900;2022-11-24T08:11:21;5.23;;;1.50;;
37451;SDS011;23314;51.114;6.900;2022-11-24T08:13:46;7.30;;;2.20;;
37451;SDS011;23314;51.114;6.900;2022-11-24T08:16:12;5.73;;;1.90;;
37451;SDS011;23314;51.114;6.900;2022-11-24T08:18:41;5.83;;;2.53;;
37451;SDS011;23314;51.114;6.900;2022-11-24T08:21:10;4.67;;;1.70;;
37451;SDS011;23314;51.114;6.900;2022-11-24T08:23:37;5.70;;;1.93;;
37451;SDS011;23314;51.114;6.900;2022-11-24T08:26:03;9.50;;;2.20;;
37451;SDS011;23314;51.114;6.900;2022-11-24T08:28:31;9.60;;;2.20;;
37451;SDS011;23314;51.114;6.900;2022-11-24T08:31:01;8.80;;;2.57;;
37451;SDS011;23314;51.114;6.900;2022-11-24T08:33:30;8.77;;;2.53;;
37451;SDS011;23314;51.114;6.900;2022-11-24T08:35:56;7.43;;;2.53;;
37451;SDS011;23314;51.114;6.900;2022-11-24T08:38:26;8.83;;;2.53;;
37451;SDS011;23314;51.114;6.900;2022-11-24T08:40:52;7.23;;;2.63;;
37451;SDS011;23314;51.114;6.900;2022-11-24T08:43:17;6.90;;;2.83;;
37451;SDS011;23314;51.114;6.900;2022-11-24T08:45:42;7.53;;;3.00;;
37451;SDS011;23314;51.114;6.900;2022-11-24T08:48:08;10.53;;;2.53;;
37451;SDS011;23314;51.114;6.900;2022-11-24T08:50:33;9.07;;;3.00;;
37451;SDS011;23314;51.114;6.900;2022-11-24T08:52:59;10.43;;;3.13;;
37451;SDS011;23314;51.114;6.900;2022-11-24T08:55:26;9.37;;;2.33;;
37451;SDS011;23314;51.114;6.900;2022-11-24T08:57:51;8.70;;;2.30;;
37451;SDS011;23314;51.114;6.900;2022-11-24T09:00:17;6.73;;;2.93;;
37451;SDS011;23314;51.114;6.900;2022-11-24T09:02:51;10.00;;;2.70;;
37451;SDS011;23314;51.114;6.900;2022-11-24T09:05:19;12.93;;;3.20;;
37451;SDS011;23314;51.114;6.900;2022-11-24T09:07:45;9.80;;;2.50;;
37451;SDS011;23314;51.114;6.900;2022-11-24T09:10:10;15.33;;;3.53;;
37451;SDS011;23314;51.114;6.900;2022-11-24T09:12:36;11.10;;;2.67;;
37451;SDS011;23314;51.114;6.900;2022-11-24T09:15:01;10.87;;;3.20;;
37451;SDS011;23314;51.114;6.900;2022-11-24T09:17:26;13.50;;;3.00;;
37451;SDS011;23314;51.114;6.900;2022-11-24T09:19:52;12.67;;;3.27;;
37451;SDS011;23314;51.114;6.900;2022-11-24T09:22:17;9.73;;;3.03;;
37451;SDS011;23314;51.114;6.900;2022-11-24T09:24:43;13.73;;;3.30;;
37451;SDS011;23314;51.114;6.900;2022-11-24T09:27:08;10.37;;;3.23;;
37451;SDS011;23314;51.114;6.900;2022-11-24T09:29:33;13.40;;;2.73;;
37451;SDS011;23314;51.114;6.900;2022-11-24T09:31:59;12.50;;;2.60;;
37451;SDS011;23314;51.114;6.900;2022-11-24T09:34:24;13.20;;;3.13;;
37451;SDS011;23314;51.114;6.900;2022-11-24T09:36:50;12.43;;;3.00;;
37451;SDS011;23314;51.114;6.900;2022-11-24T09:39:15;12.43;;;2.97;;
37451;SDS011;23314;51.114;6.900;2022-11-24T09:41:56;10.07;;;2.80;;
37451;SDS011;23314;51.114;6.900;2022-11-24T09:47:24;14.30;;;3.13;;
37451;SDS011;23314;51.114;6.900;2022-11-24T09:50:19;10.90;;;3.47;;
37451;SDS011;23314;51.114;6.900;2022-11-24T09:52:48;14.07;;;3.13;;
37451;SDS011;23314;51.114;6.900;2022-11-24T09:55:23;16.37;;;3.40;;
37451;SDS011;23314;51.114;6.900;2022-11-24T09:57:55;14.40;;;3.70;;
37451;SDS011;23314;51.114;6.900;2022-11-24T10:00:27;11.17;;;2.87;;
37451;SDS011;23314;51.114;6.900;2022-11-24T10:02:54;12.93;;;3.30;;
37451;SDS011;23314;51.114;6.900;2022-11-24T10:05:19;17.10;;;3.20;;
37451;SDS011;23314;51.114;6.900;2022-11-24T10:10:59;9.77;;;2.87;;
37451;SDS011;23314;51.114;6.900;2022-11-24T10:21:47;12.03;;;3.40;;
37451;SDS011;23314;51.114;6.900;2022-11-24T10:24:28;10.67;;;3.17;;
37451;SDS011;23314;51.114;6.900;2022-11-24T10:27:17;12.67;;;3.00;;
37451;SDS011;23314;51.114;6.900;2022-11-24T10:29:47;12.67;;;2.80;;
37451;SDS011;23314;51.114;6.900;2022-11-24T10:32:19;12.10;;;3.10;;
37451;SDS011;23314;51.114;6.900;2022-11-24T10:34:49;11.73;;;3.10;;
37451;SDS011;23314;51.114;6.900;2022-11-24T10:40:12;13.83;;;3.60;;
37451;SDS011;23314;51.114;6.900;2022-11-24T10:42:46;14.73;;;2.97;;
37451;SDS011;23314;51.114;6.900;2022-11-24T10:45:14;13.53;;;2.90;;
37451;SDS011;23314;51.114;6.900;2022-11-24T10:47:41;13.67;;;3.43;;
37451;SDS011;23314;51.114;6.900;2022-11-24T10:55:43;19.30;;;3.90;;
37451;SDS011;23314;51.114;6.900;2022-11-24T10:58:26;13.13;;;3.73;;
37451;SDS011;23314;51.114;6.900;2022-11-24T11:00:55;11.27;;;3.20;;
37451;SDS011;23314;51.114;6.900;2022-11-24T11:03:26;14.57;;;3.20;;
37451;SDS011;23314;51.114;6.900;2022-11-24T11:05:59;9.97;;;2.90;;
37451;SDS011;23314;51.114;6.900;2022-11-24T11:08:27;11.43;;;3.30;;
37451;SDS011;23314;51.114;6.900;2022-11-24T11:11:15;12.23;;;3.07;;
37451;SDS011;23314;51.114;6.900;2022-11-24T11:13:47;11.60;;;2.90;;
37451;SDS011;23314;51.114;6.900;2022-11-24T11:16:32;21.70;;;3.80;;
37451;SDS011;23314;51.114;6.900;2022-11-24T11:24:39;14.90;;;3.17;;
37451;SDS011;23314;51.114;6.900;2022-11-24T11:29:42;16.43;;;3.73;;
37451;SDS011;23314;51.114;6.900;2022-11-24T11:32:24;17.10;;;6.27;;
37451;SDS011;23314;51.114;6.900;2022-11-24T11:34:52;17.13;;;3.87;;
37451;SDS011;23314;51.114;6.900;2022-11-24T11:37:19;13.70;;;3.40;;
37451;SDS011;23314;51.114;6.900;2022-11-24T11:39:49;15.63;;;3.27;;
37451;SDS011;23314;51.114;6.900;2022-11-24T11:44:56;19.43;;;3.87;;
37451;SDS011;23314;51.114;6.900;2022-11-24T11:47:28;14.70;;;3.03;;
37451;SDS011;23314;51.114;6.900;2022-11-24T11:50:12;14.73;;;3.30;;
37451;SDS011;23314;51.114;6.900;2022-11-24T11:55:39;14.93;;;3.13;;
37451;SDS011;23314;51.114;6.900;2022-11-24T11:58:14;13.77;;;4.03;;
37451;SDS011;23314;51.114;6.900;2022-11-24T12:06:30;19.07;;;3.10;;
37451;SDS011;23314;51.114;6.900;2022-11-24T12:12:02;10.00;;;2.70;;
37451;SDS011;23314;51.114;6.900;2022-11-24T12:17:39;12.77;;;2.97;;
37451;SDS011;23314;51.114;6.900;2022-11-24T12:20:18;14.47;;;3.17;;
37451;SDS011;23314;51.114;6.900;2022-11-24T12:23:23;12.50;;;3.23;;
37451;SDS011;23314;51.114;6.900;2022-11-24T12:28:42;15.13;;;3.47;;
37451;SDS011;23314;51.114;6.900;2022-11-24T12:36:57;19.67;;;3.53;;
37451;SDS011;23314;51.114;6.900;2022-11-24T12:39:38;11.10;;;3.00;;
37451;SDS011;23314;51.114;6.900;2022-11-24T12:42:29;15.17;;;3.70;;
37451;SDS011;23314;51.114;6.900;2022-11-24T12:50:29;13.53;;;3.30;;
37451;SDS011;23314;51.114;6.900;2022-11-24T12:53:11;18.63;;;4.27;;
37451;SDS011;23314;51.114;6.900;2022-11-24T12:55:39;11.93;;;3.43;;
37451;SDS011;23314;51.114;6.900;2022-11-24T13:04:12;14.43;;;3.13;;
37451;SDS011;23314;51.114;6.900;2022-11-24T13:09:23;14.97;;;3.40;;
37451;SDS011;23314;51.114;6.900;2022-11-24T13:14:38;14.10;;;3.50;;
37451;SDS011;23314;51.114;6.900;2022-11-24T13:22:54;14.13;;;3.63;;
37451;SDS011;23314;51.114;6.900;2022-11-24T13:25:29;20.97;;;4.27;;
37451;SDS011;23314;51.114;6.900;2022-11-24T13:27:57;18.00;;;4.17;;
37451;SDS011;23314;51.114;6.900;2022-11-24T13:35:36;21.77;;;3.83;;
37451;SDS011;23314;51.114;6.900;2022-11-24T13:38:02;14.27;;;3.53;;
37451;SDS011;23314;51.114;6.900;2022-11-24T13:40:35;13.00;;;3.53;;
37451;SDS011;23314;51.114;6.900;2022-11-24T13:56:02;18.17;;;3.40;;
37451;SDS011;23314;51.114;6.900;2022-11-24T13:58:35;16.43;;;3.37;;
37451;SDS011;23314;51.114;6.900;2022-11-24T14:03:33;11.17;;;3.03;;
37451;SDS011;23314;51.114;6.900;2022-11-24T14:06:01;13.10;;;3.20;;
37451;SDS011;23314;51.114;6.900;2022-11-24T14:08:29;14.03;;;3.33;;
37451;SDS011;23314;51.114;6.900;2022-11-24T14:10:57;9.73;;;2.93;;
37451;SDS011;23314;51.114;6.900;2022-11-24T14:13:25;17.97;;;4.03;;
37451;SDS011;23314;51.114;6.900;2022-11-24T14:18:26;17.17;;;3.73;;
37451;SDS011;23314;51.114;6.900;2022-11-24T14:20:55;13.83;;;3.70;;
37451;SDS011;23314;51.114;6.900;2022-11-24T14:23:25;17.40;;;3.03;;
37451;SDS011;23314;51.114;6.900;2022-11-24T14:25:51;15.10;;;4.00;;
37451;SDS011;23314;51.114;6.900;2022-11-24T14:28:21;17.50;;;3.53;;
37451;SDS011;23314;51.114;6.900;2022-11-24T14:30:50;15.47;;;3.70;;
37451;SDS011;23314;51.114;6.900;2022-11-24T14:33:17;15.07;;;3.23;;
37451;SDS011;23314;51.114;6.900;2022-11-24T14:35:47;15.30;;;3.30;;
37451;SDS011;23314;51.114;6.900;2022-11-24T14:38:14;16.60;;;3.23;;
37451;SDS011;23314;51.114;6.900;2022-11-24T14:40:41;12.90;;;4.00;;
37451;SDS011;23314;51.114;6.900;2022-11-24T14:43:16;16.43;;;3.70;;
37451;SDS011;23314;51.114;6.900;2022-11-24T14:45:52;12.60;;;3.17;;
37451;SDS011;23314;51.114;6.900;2022-11-24T14:48:22;13.40;;;3.30;;
37451;SDS011;23314;51.114;6.900;2022-11-24T14:50:50;13.53;;;3.40;;
37451;SDS011;23314;51.114;6.900;2022-11-24T14:53:22;14.87;;;3.83;;
37451;SDS011;23314;51.114;6.900;2022-11-24T14:56:05;19.20;;;4.20;;
37451;SDS011;23314;51.114;6.900;2022-11-24T14:58:33;19.03;;;3.80;;
37451;SDS011;23314;51.114;6.900;2022-11-24T15:03:43;18.40;;;3.63;;
37451;SDS011;23314;51.114;6.900;2022-11-24T15:06:14;15.50;;;4.30;;
37451;SDS011;23314;51.114;6.900;2022-11-24T15:08:44;19.43;;;4.37;;
37451;SDS011;23314;51.114;6.900;2022-11-24T15:11:12;12.40;;;3.53;;
37451;SDS011;23314;51.114;6.900;2022-11-24T15:13:38;19.00;;;4.10;;
37451;SDS011;23314;51.114;6.900;2022-11-24T15:16:12;24.53;;;4.50;;
37451;SDS011;23314;51.114;6.900;2022-11-24T15:18:40;16.33;;;3.87;;
37451;SDS011;23314;51.114;6.900;2022-11-24T15:21:08;19.23;;;4.03;;
37451;SDS011;23314;51.114;6.900;2022-11-24T15:23:34;22.00;;;3.70;;
37451;SDS011;23314;51.114;6.900;2022-11-24T15:28:26;15.70;;;3.50;;
37451;SDS011;23314;51.114;6.900;2022-11-24T15:30:55;15.83;;;3.30;;
37451;SDS011;23314;51.114;6.900;2022-11-24T15:33:24;20.20;;;3.90;;
37451;SDS011;23314;51.114;6.900;2022-11-24T15:35:50;19.93;;;4.30;;
37451;SDS011;23314;51.114;6.900;2022-11-24T15:38:16;19.00;;;4.50;;
37451;SDS011;23314;51.114;6.900;2022-11-24T15:40:43;19.73;;;4.00;;
37451;SDS011;23314;51.114;6.900;2022-11-24T15:45:45;17.00;;;4.20;;
37451;SDS011;23314;51.114;6.900;2022-11-24T15:48:11;21.97;;;4.07;;
37451;SDS011;23314;51.114;6.900;2022-11-24T15:50:36;20.00;;;4.20;;
37451;SDS011;23314;51.114;6.900;2022-11-24T15:53:02;20.23;;;4.40;;
37451;SDS011;23314;51.114;6.900;2022-11-24T15:55:28;24.43;;;4.40;;
37451;SDS011;23314;51.114;6.900;2022-11-24T15:57:55;15.60;;;3.60;;
37451;SDS011;23314;51.114;6.900;2022-11-24T16:00:21;21.07;;;4.97;;
37451;SDS011;23314;51.114;6.900;2022-11-24T16:02:47;19.30;;;4.40;;
37451;SDS011;23314;51.114;6.900;2022-11-24T16:05:13;20.00;;;4.73;;
37451;SDS011;23314;51.114;6.900;2022-11-24T16:07:39;15.87;;;4.03;;
37451;SDS011;23314;51.114;6.900;2022-11-24T16:10:06;19.87;;;4.17;;
37451;SDS011;23314;51.114;6.900;2022-11-24T16:12:36;26.30;;;4.53;;
37451;SDS011;23314;51.114;6.900;2022-11-24T16:15:01;20.37;;;4.00;;
37451;SDS011;23314;51.114;6.900;2022-11-24T16:17:27;20.27;;;3.90;;
37451;SDS011;23314;51.114;6.900;2022-11-24T16:19:52;23.47;;;4.90;;
37451;SDS011;23314;51.114;6.900;2022-11-24T16:22:17;18.30;;;3.93;;
37451;SDS011;23314;51.114;6.900;2022-11-24T16:24:43;23.30;;;3.93;;
37451;SDS011;23314;51.114;6.900;2022-11-24T16:27:08;21.83;;;4.70;;
37451;SDS011;23314;51.114;6.900;2022-11-24T16:29:33;17.83;;;4.73;;
37451;SDS011;23314;51.114;6.900;2022-11-24T16:31:59;13.47;;;3.80;;